Time;durP1;ratioP1;P1;durP2;ratioP2;P2;SDS_P1;SDS_P2;PMS_P1;PMS_P2;Temp;Humidity;BMP_temperature;BMP_pressure;BME280_temperature;BME280_humidity;BME280_pressure;Samples;Min_cycle;Max_cycle;Signal;HPM_P1;HPM_P2
2021/06/05 00:02:58;;;;;;;;;23.67;21.67;;;;;;;;8898527;40;10274;-57
2021/06/05 00:09:02;;;;;;;;;30.00;27.00;;;;;;;;8889279;40;9914;-59
2021/06/05 00:15:13;;;;;;;;;27.00;22.33;;;;;;;;8899751;40;9921;-58
2021/06/05 00:21:19;;;;;;;;;28.00;23.67;;;;;;;;8898441;40;11160;-59
2021/06/05 00:27:21;;;;;;;;;36.00;29.33;;;;;;;;8899846;40;9918;-58
2021/06/05 00:33:23;;;;;;;;;29.33;27.67;;;;;;;;8897435;40;10120;-58
2021/06/05 00:39:25;;;;;;;;;31.67;27.67;;;;;;;;8874229;40;9909;-58
2021/06/05 00:45:32;;;;;;;;;34.67;27.00;;;;;;;;8873198;40;9952;-58
2021/06/05 00:51:37;;;;;;;;;29.33;27.00;;;;;;;;8872896;40;10148;-58
2021/06/05 00:57:41;;;;;;;;;26.00;23.33;;;;;;;;8872581;40;10492;-58
2021/06/05 01:03:44;;;;;;;;;33.00;29.33;;;;;;;;8872839;40;9940;-58
2021/06/05 01:10:00;;;;;;;;;30.00;26.33;;;;;;;;8873306;40;9966;-58
2021/06/05 01:16:18;;;;;;;;;30.67;27.33;;;;;;;;8871613;40;9971;-58
2021/06/05 01:22:46;;;;;;;;;24.00;23.67;;;;;;;;8872080;40;10613;-58
2021/06/05 01:29:19;;;;;;;;;28.67;28.67;;;;;;;;8872662;40;9928;-58
2021/06/05 01:35:23;;;;;;;;;29.33;25.33;;;;;;;;8873558;40;10020;-58
2021/06/05 01:41:29;;;;;;;;;24.00;23.00;;;;;;;;8872801;40;9852;-58
2021/06/05 01:47:36;;;;;;;;;27.33;27.33;;;;;;;;8871335;40;9965;-57
2021/06/05 01:53:50;;;;;;;;;27.33;25.00;;;;;;;;8872792;40;9909;-58
2021/06/05 01:59:54;;;;;;;;;31.67;28.00;;;;;;;;8870378;40;9924;-58
2021/06/05 02:06:01;;;;;;;;;28.00;27.33;;;;;;;;8876647;40;9911;-58
2021/06/05 02:12:07;;;;;;;;;28.00;27.33;;;;;;;;8887787;40;9886;-57
2021/06/05 02:18:28;;;;;;;;;27.67;26.67;;;;;;;;8896144;40;9918;-58
2021/06/05 02:24:45;;;;;;;;;29.00;26.00;;;;;;;;8874923;40;10513;-58
2021/06/05 02:30:49;;;;;;;;;28.00;27.00;;;;;;;;8863927;40;10435;-59
2021/06/05 02:36:55;;;;;;;;;30.33;29.00;;;;;;;;8872728;40;9944;-58
2021/06/05 02:43:03;;;;;;;;;27.33;27.00;;;;;;;;8869795;40;10103;-58
2021/06/05 02:49:29;;;;;;;;;22.33;16.33;;;;;;;;8886033;40;9818;-58
2021/06/05 02:55:34;;;;;;;;;27.67;26.33;;;;;;;;8884127;40;9934;-58
2021/06/05 03:01:38;;;;;;;;;30.00;27.00;;;;;;;;8886398;40;9907;-59
2021/06/05 03:07:39;;;;;;;;;23.67;23.67;;;;;;;;8896126;40;9918;-58
2021/06/05 03:13:42;;;;;;;;;29.67;29.67;;;;;;;;8889894;40;9898;-57
2021/06/05 03:19:45;;;;;;;;;31.00;28.67;;;;;;;;8890112;40;10040;-58
2021/06/05 03:25:47;;;;;;;;;26.67;23.00;;;;;;;;8887910;40;9962;-58
2021/06/05 03:31:50;;;;;;;;;21.00;21.00;;;;;;;;8889953;40;9846;-59
2021/06/05 03:37:53;;;;;;;;;27.33;26.33;;;;;;;;8900493;40;9854;-58
2021/06/05 03:44:00;;;;;;;;;24.67;22.00;;;;;;;;8890035;40;10085;-58
2021/06/05 03:50:08;;;;;;;;;20.33;20.33;;;;;;;;8899145;40;9898;-58
2021/06/05 03:56:12;;;;;;;;;21.67;20.00;;;;;;;;8889572;40;9914;-58
2021/06/05 04:02:14;;;;;;;;;23.33;23.00;;;;;;;;8898998;40;9838;-58
2021/06/05 04:08:16;;;;;;;;;21.33;20.33;;;;;;;;8899175;40;10090;-59
2021/06/05 04:14:18;;;;;;;;;20.67;20.67;;;;;;;;8899549;40;9906;-58
2021/06/05 04:20:20;;;;;;;;;19.33;19.33;;;;;;;;8898684;40;9907;-58
2021/06/05 04:26:23;;;;;;;;;23.00;20.67;;;;;;;;8895573;40;9881;-59
2021/06/05 04:32:25;;;;;;;;;22.33;20.67;;;;;;;;8898656;40;10977;-58
2021/06/05 04:38:28;;;;;;;;;15.67;15.33;;;;;;;;8899171;40;10094;-57
2021/06/05 04:44:30;;;;;;;;;28.67;22.00;;;;;;;;8898200;40;10076;-59
2021/06/05 04:50:37;;;;;;;;;23.00;21.33;;;;;;;;8878902;40;9871;-58
2021/06/05 04:56:43;;;;;;;;;19.33;19.33;;;;;;;;8873358;40;9830;-59
2021/06/05 05:02:45;;;;;;;;;22.67;18.67;;;;;;;;8873754;40;9932;-58
2021/06/05 05:08:47;;;;;;;;;28.00;23.00;;;;;;;;8873039;40;9845;-58
2021/06/05 05:14:50;;;;;;;;;24.00;23.00;;;;;;;;8873963;40;9944;-58
2021/06/05 05:20:52;;;;;;;;;20.67;20.00;;;;;;;;8898078;40;9902;-59
2021/06/05 05:26:54;;;;;;;;;18.67;18.67;;;;;;;;8897247;40;9894;-58
2021/06/05 05:32:58;;;;;;;;;17.33;17.33;;;;;;;;8896359;40;9883;-59
2021/06/05 05:39:04;;;;;;;;;18.33;18.33;;;;;;;;8885504;40;9936;-58
2021/06/05 05:45:07;;;;;;;;;20.67;18.67;;;;;;;;8872229;40;9969;-58
2021/06/05 05:51:12;;;;;;;;;23.33;20.67;;;;;;;;8873424;40;9958;-58
2021/06/05 05:57:14;;;;;;;;;18.67;17.67;;;;;;;;8871974;40;10113;-59
2021/06/05 06:03:16;;;;;;;;;17.00;16.67;;;;;;;;8873124;40;10460;-58
2021/06/05 06:09:19;;;;;;;;;17.00;16.33;;;;;;;;8872463;40;9962;-59
2021/06/05 06:15:24;;;;;;;;;18.67;17.33;;;;;;;;8872544;40;10343;-58
2021/06/05 06:21:26;;;;;;;;;16.75;13.75;;;;;;;;8872089;40;10856;-59
2021/06/05 06:27:31;;;;;;;;;11.50;10.25;;;;;;;;8888542;40;10635;-59
2021/06/05 06:33:34;;;;;;;;;9.75;8.25;;;;;;;;8897775;40;10583;-59
2021/06/05 06:39:36;;;;;;;;;14.00;14.00;;;;;;;;8897654;40;10489;-59
2021/06/05 06:45:39;;;;;;;;;16.00;16.00;;;;;;;;8897567;40;10372;-59
2021/06/05 06:51:42;;;;;;;;;20.75;17.25;;;;;;;;8901266;40;10342;-59
2021/06/05 06:57:44;;;;;;;;;15.00;13.75;;;;;;;;8898562;40;10381;-58
2021/06/05 07:03:47;;;;;;;;;10.00;10.00;;;;;;;;8899595;40;10308;-59
2021/06/05 07:09:49;;;;;;;;;10.50;10.50;;;;;;;;8900482;40;10293;-59
2021/06/05 07:15:52;;;;;;;;;15.00;12.50;;;;;;;;8890422;40;11642;-58
2021/06/05 07:21:54;;;;;;;;;12.50;10.00;;;;;;;;8899390;40;10517;-59
2021/06/05 07:27:56;;;;;;;;;10.75;10.75;;;;;;;;8899732;40;10347;-58
2021/06/05 07:33:59;;;;;;;;;15.50;13.75;;;;;;;;8899331;40;10370;-60
2021/06/05 07:40:06;;;;;;;;;14.00;13.75;;;;;;;;8899998;40;10518;-58
2021/06/05 07:46:08;;;;;;;;;13.75;12.75;;;;;;;;8898713;40;10369;-59
2021/06/05 07:52:12;;;;;;;;;9.75;9.75;;;;;;;;8889040;40;10320;-60
2021/06/05 07:58:14;;;;;;;;;14.00;12.75;;;;;;;;8874549;40;10397;-58
2021/06/05 08:04:17;;;;;;;;;9.25;9.25;;;;;;;;8874302;40;10323;-58
2021/06/05 08:10:23;;;;;;;;;13.00;11.50;;;;;;;;8864622;40;10506;-59
2021/06/05 08:16:25;;;;;;;;;12.75;10.50;;;;;;;;8873925;40;11080;-59
2021/06/05 08:22:27;;;;;;;;;12.00;10.00;;;;;;;;8865915;40;10280;-59
2021/06/05 08:28:30;;;;;;;;;12.50;10.50;;;;;;;;8891135;40;10354;-59
2021/06/05 08:34:33;;;;;;;;;13.50;9.00;;;;;;;;8888348;40;10940;-59
2021/06/05 08:40:43;;;;;;;;;12.00;12.00;;;;;;;;8898472;40;10356;-59
2021/06/05 08:46:50;;;;;;;;;9.50;9.50;;;;;;;;8898019;40;10315;-59
2021/06/05 08:53:24;;;;;;;;;14.00;11.50;;;;;;;;8898094;40;10408;-59
2021/06/05 08:59:26;;;;;;;;;20.00;19.00;;;;;;;;8871084;40;10607;-60
2021/06/05 09:05:35;;;;;;;;;14.75;14.75;;;;;;;;8874471;40;10584;-62
2021/06/05 09:11:37;;;;;;;;;16.50;15.00;;;;;;;;8864780;40;10358;-61
2021/06/05 09:17:49;;;;;;;;;17.75;16.25;;;;;;;;8873164;40;10368;-59
2021/06/05 09:23:52;;;;;;;;;17.50;14.25;;;;;;;;8877362;40;10343;-60
2021/06/05 09:29:59;;;;;;;;;20.00;17.00;;;;;;;;8895358;40;10632;-60
2021/06/05 09:36:17;;;;;;;;;18.00;16.50;;;;;;;;8873985;40;11018;-60
2021/06/05 09:42:33;;;;;;;;;14.25;14.00;;;;;;;;8871974;40;10474;-61
2021/06/05 09:48:45;;;;;;;;;22.25;20.25;;;;;;;;8873942;40;10400;-60
2021/06/05 09:54:54;;;;;;;;;19.00;17.75;;;;;;;;8872090;40;11150;-60
2021/06/05 10:01:16;;;;;;;;;14.50;14.50;;;;;;;;8871273;40;10331;-61
2021/06/05 10:07:28;;;;;;;;;14.75;13.75;;;;;;;;8872249;40;10573;-59
2021/06/05 10:13:35;;;;;;;;;14.00;14.00;;;;;;;;8879035;40;10413;-60
2021/06/05 10:19:45;;;;;;;;;17.50;17.25;;;;;;;;8872769;40;10587;-61
2021/06/05 10:25:51;;;;;;;;;16.75;16.25;;;;;;;;8872159;40;10413;-60
2021/06/05 10:31:54;;;;;;;;;18.00;17.00;;;;;;;;8871981;40;10459;-59
2021/06/05 10:38:09;;;;;;;;;16.25;16.25;;;;;;;;8871545;40;10449;-59
2021/06/05 10:44:11;;;;;;;;;17.50;17.00;;;;;;;;8871923;40;10412;-60
2021/06/05 10:50:20;;;;;;;;;15.75;14.00;;;;;;;;8871266;40;10443;-59
2021/06/05 10:56:39;;;;;;;;;16.25;16.25;;;;;;;;8875437;40;10868;-60
2021/06/05 11:02:46;;;;;;;;;18.00;14.00;;;;;;;;8895377;40;10333;-59
2021/06/05 11:08:51;;;;;;;;;22.00;20.00;;;;;;;;8895769;40;10603;-60
2021/06/05 11:14:56;;;;;;;;;19.25;17.75;;;;;;;;8896023;40;10968;-60
2021/06/05 11:21:24;;;;;;;;;13.00;13.00;;;;;;;;8894367;40;10305;-60
2021/06/05 11:27:48;;;;;;;;;17.75;17.75;;;;;;;;8895096;40;10599;-61
2021/06/05 11:33:50;;;;;;;;;14.50;11.75;;;;;;;;8898004;40;10383;-60
2021/06/05 11:40:06;;;;;;;;;16.00;14.00;;;;;;;;8899845;40;10463;-59
2021/06/05 11:46:22;;;;;;;;;9.50;9.50;;;;;;;;8899452;40;10300;-60
2021/06/05 11:52:31;;;;;;;;;13.50;12.00;;;;;;;;8896251;40;10331;-59
2021/06/05 11:58:36;;;;;;;;;17.00;14.00;;;;;;;;8875417;40;10401;-60
2021/06/05 12:04:44;;;;;;;;;16.25;14.75;;;;;;;;8882528;40;10732;-59
2021/06/05 12:10:47;;;;;;;;;14.50;11.50;;;;;;;;8874700;40;10537;-60
2021/06/05 12:16:55;;;;;;;;;14.50;13.00;;;;;;;;8872327;40;10511;-59
2021/06/05 12:23:16;;;;;;;;;13.25;12.00;;;;;;;;8894184;40;10314;-60
2021/06/05 12:29:24;;;;;;;;;16.00;14.75;;;;;;;;8883936;40;10330;-60
2021/06/05 12:35:40;;;;;;;;;13.75;12.50;;;;;;;;8873515;40;10614;-60
2021/06/05 12:41:45;;;;;;;;;12.75;11.25;;;;;;;;8875577;40;10366;-60
2021/06/05 12:47:52;;;;;;;;;14.00;14.00;;;;;;;;8873479;40;10623;-60
2021/06/05 12:54:03;;;;;;;;;12.00;10.50;;;;;;;;8874661;40;10324;-60
2021/06/05 13:00:16;;;;;;;;;13.25;13.25;;;;;;;;8864851;40;10361;-61
2021/06/05 13:06:22;;;;;;;;;13.00;11.00;;;;;;;;8874269;40;10365;-60
2021/06/05 13:12:31;;;;;;;;;21.00;16.25;;;;;;;;8873792;40;10450;-60
2021/06/05 13:18:45;;;;;;;;;12.00;10.25;;;;;;;;8873304;40;10392;-60
2021/06/05 13:25:02;;;;;;;;;10.25;10.25;;;;;;;;8873474;40;10313;-61
2021/06/05 13:31:04;;;;;;;;;13.00;10.75;;;;;;;;8874181;40;10378;-60
2021/06/05 13:37:20;;;;;;;;;12.25;11.25;;;;;;;;8873669;40;10330;-60
2021/06/05 13:43:22;;;;;;;;;12.75;10.75;;;;;;;;8873095;40;10336;-60
2021/06/05 13:49:24;;;;;;;;;12.25;9.75;;;;;;;;8872800;40;11532;-59
2021/06/05 13:55:30;;;;;;;;;16.25;13.50;;;;;;;;8872038;40;10568;-59
2021/06/05 14:01:33;;;;;;;;;8.50;8.50;;;;;;;;8873908;40;10840;-59
2021/06/05 14:07:36;;;;;;;;;9.50;9.50;;;;;;;;8874449;40;10254;-62
2021/06/05 14:13:37;;;;;;;;;13.75;13.75;;;;;;;;8873285;40;10490;-60
2021/06/05 14:19:39;;;;;;;;;11.25;11.25;;;;;;;;8895252;40;10360;-59
2021/06/05 14:25:44;;;;;;;;;11.00;9.75;;;;;;;;8888232;40;10346;-59
2021/06/05 14:31:46;;;;;;;;;11.00;11.00;;;;;;;;8872464;40;10379;-60
2021/06/05 14:37:48;;;;;;;;;10.75;10.00;;;;;;;;8873233;40;10770;-61
2021/06/05 14:43:51;;;;;;;;;9.25;8.75;;;;;;;;8871127;40;10301;-59
2021/06/05 14:49:53;;;;;;;;;11.00;11.00;;;;;;;;8872660;40;10352;-61
2021/06/05 14:55:57;;;;;;;;;7.50;7.50;;;;;;;;8862375;40;10236;-59
2021/06/05 15:01:59;;;;;;;;;6.75;5.25;;;;;;;;8865469;40;10319;-60
2021/06/05 15:08:03;;;;;;;;;7.00;6.00;;;;;;;;8881245;40;11036;-60
2021/06/05 15:14:05;;;;;;;;;10.00;10.00;;;;;;;;8900082;40;10295;-60
2021/06/05 15:20:09;;;;;;;;;11.25;10.00;;;;;;;;8900556;40;10438;-60
2021/06/05 15:26:11;;;;;;;;;8.50;6.75;;;;;;;;8899912;40;10640;-60
2021/06/05 15:32:13;;;;;;;;;7.00;6.75;;;;;;;;8887132;40;10320;-60
2021/06/05 15:38:17;;;;;;;;;11.25;9.00;;;;;;;;8896199;40;10419;-59
2021/06/05 15:44:19;;;;;;;;;10.50;9.00;;;;;;;;8899906;40;10311;-60
2021/06/05 15:50:22;;;;;;;;;10.25;9.75;;;;;;;;8900469;40;10409;-59
2021/06/05 15:56:28;;;;;;;;;10.75;10.50;;;;;;;;8898584;40;10330;-60
2021/06/05 16:02:30;;;;;;;;;12.25;11.00;;;;;;;;8899961;40;10356;-61
2021/06/05 16:08:32;;;;;;;;;9.75;9.75;;;;;;;;8900235;40;10485;-62
2021/06/05 16:14:35;;;;;;;;;13.75;11.00;;;;;;;;8900185;40;10925;-60
2021/06/05 16:20:38;;;;;;;;;13.50;11.50;;;;;;;;8898278;40;10309;-61
2021/06/05 16:26:41;;;;;;;;;15.75;15.50;;;;;;;;8898803;40;10288;-60
2021/06/05 16:32:43;;;;;;;;;9.75;8.75;;;;;;;;8881142;40;10582;-60
2021/06/05 16:38:46;;;;;;;;;17.75;15.50;;;;;;;;8873529;40;10398;-60
2021/06/05 16:44:48;;;;;;;;;8.25;8.25;;;;;;;;8873750;40;10277;-58
2021/06/05 16:50:52;;;;;;;;;14.75;12.25;;;;;;;;8874619;40;10268;-60
2021/06/05 16:56:54;;;;;;;;;11.50;11.50;;;;;;;;8873637;40;10372;-59
2021/06/05 17:02:58;;;;;;;;;16.25;15.50;;;;;;;;8874123;40;11004;-60
2021/06/05 17:09:03;;;;;;;;;15.00;14.00;;;;;;;;8873478;40;10383;-59
2021/06/05 17:15:12;;;;;;;;;15.25;15.25;;;;;;;;8874342;40;10416;-59
2021/06/05 17:21:16;;;;;;;;;16.50;15.50;;;;;;;;8873331;40;11774;-61
2021/06/05 17:27:18;;;;;;;;;15.25;12.50;;;;;;;;8873173;40;10409;-59
2021/06/05 17:33:23;;;;;;;;;16.50;14.75;;;;;;;;8872994;40;11255;-62
2021/06/05 17:39:25;;;;;;;;;14.25;14.25;;;;;;;;8872901;40;10516;-60
2021/06/05 17:45:30;;;;;;;;;16.25;16.00;;;;;;;;8873663;40;10550;-59
2021/06/05 17:51:33;;;;;;;;;17.75;17.75;;;;;;;;8873821;40;11125;-60
2021/06/05 17:57:36;;;;;;;;;19.00;19.00;;;;;;;;8872741;40;10924;-60
2021/06/05 18:03:45;;;;;;;;;26.00;21.00;;;;;;;;8888263;40;10795;-60
2021/06/05 18:09:48;;;;;;;;;23.00;21.33;;;;;;;;8889473;40;10262;-60
2021/06/05 18:15:53;;;;;;;;;17.25;17.25;;;;;;;;8872791;40;11406;-60
2021/06/05 18:21:58;;;;;;;;;24.67;24.67;;;;;;;;8876245;40;10015;-58
2021/06/05 18:28:04;;;;;;;;;26.67;25.33;;;;;;;;8885008;40;9883;-59
2021/06/05 18:34:07;;;;;;;;;28.67;25.33;;;;;;;;8871663;40;10290;-59
2021/06/05 18:40:09;;;;;;;;;27.67;27.00;;;;;;;;8872307;40;9902;-59
2021/06/05 18:46:15;;;;;;;;;31.00;28.33;;;;;;;;8871021;40;9904;-59
2021/06/05 18:52:17;;;;;;;;;38.00;36.00;;;;;;;;8872933;40;10240;-61
2021/06/05 18:58:22;;;;;;;;;22.33;22.33;;;;;;;;8871633;40;9936;-59
2021/06/05 19:04:24;;;;;;;;;29.33;26.00;;;;;;;;8872481;40;10604;-60
2021/06/05 19:10:27;;;;;;;;;32.33;30.67;;;;;;;;8871474;40;9965;-62
2021/06/05 19:16:29;;;;;;;;;25.67;22.00;;;;;;;;8871865;40;9867;-60
2021/06/05 19:22:32;;;;;;;;;25.00;24.00;;;;;;;;8870410;40;10192;-59
2021/06/05 19:28:34;;;;;;;;;19.33;18.33;;;;;;;;8871327;40;9930;-62
2021/06/05 19:34:38;;;;;;;;;34.33;29.67;;;;;;;;8871792;40;9890;-60
2021/06/05 19:40:41;;;;;;;;;28.33;26.67;;;;;;;;8870638;40;10216;-60
2021/06/05 19:46:45;;;;;;;;;35.67;32.67;;;;;;;;8870577;40;9946;-59
2021/06/05 19:52:48;;;;;;;;;37.33;33.33;;;;;;;;8871351;40;9870;-60
2021/06/05 19:58:50;;;;;;;;;32.33;27.67;;;;;;;;8874374;40;9906;-60
2021/06/05 20:04:52;;;;;;;;;29.33;28.00;;;;;;;;8874175;40;9924;-61
2021/06/05 20:10:55;;;;;;;;;29.33;28.00;;;;;;;;8874349;40;10008;-61
2021/06/05 20:16:57;;;;;;;;;29.00;26.67;;;;;;;;8873749;40;9869;-60
2021/06/05 20:23:00;;;;;;;;;31.33;27.33;;;;;;;;8872509;40;10488;-59
2021/06/05 20:29:04;;;;;;;;;27.67;27.00;;;;;;;;8887726;40;10018;-60
2021/06/05 20:35:08;;;;;;;;;25.00;24.33;;;;;;;;8900362;40;9859;-59
2021/06/05 20:41:11;;;;;;;;;31.67;28.67;;;;;;;;8896791;40;9997;-59
2021/06/05 20:47:13;;;;;;;;;27.33;24.67;;;;;;;;8899340;40;9927;-59
2021/06/05 20:53:15;;;;;;;;;21.67;21.67;;;;;;;;8898044;40;9887;-58
2021/06/05 20:59:17;;;;;;;;;29.00;26.67;;;;;;;;8887878;40;10349;-60
2021/06/05 21:05:20;;;;;;;;;23.67;23.33;;;;;;;;8874085;40;10599;-61
2021/06/05 21:11:23;;;;;;;;;20.00;19.67;;;;;;;;8873385;40;9932;-58
2021/06/05 21:17:25;;;;;;;;;25.33;24.33;;;;;;;;8873527;40;10011;-58
2021/06/05 21:23:27;;;;;;;;;26.33;22.00;;;;;;;;8873918;40;9882;-58
2021/06/05 21:29:29;;;;;;;;;29.00;26.67;;;;;;;;8874031;40;9901;-59
2021/06/05 21:35:32;;;;;;;;;25.67;23.00;;;;;;;;8873687;40;9937;-59
2021/06/05 21:41:37;;;;;;;;;24.33;23.00;;;;;;;;8889202;40;9968;-60
2021/06/05 21:47:39;;;;;;;;;27.33;23.33;;;;;;;;8863430;40;9866;-60
2021/06/05 21:53:41;;;;;;;;;30.67;26.33;;;;;;;;8873339;40;9956;-60
2021/06/05 21:59:43;;;;;;;;;23.33;21.00;;;;;;;;8877081;40;9918;-63
2021/06/05 22:05:51;;;;;;;;;27.00;22.67;;;;;;;;8896727;40;10538;-58
2021/06/05 22:11:57;;;;;;;;;26.00;24.67;;;;;;;;8897900;40;9899;-59
2021/06/05 22:18:00;;;;;;;;;25.33;24.00;;;;;;;;8897192;40;9915;-59
2021/06/05 22:24:05;;;;;;;;;24.33;23.33;;;;;;;;8890214;40;9911;-59
2021/06/05 22:30:29;;;;;;;;;27.33;25.67;;;;;;;;8872625;40;10018;-59
2021/06/05 22:36:31;;;;;;;;;24.33;24.33;;;;;;;;8872179;40;9972;-59
2021/06/05 22:42:33;;;;;;;;;23.67;20.00;;;;;;;;8871864;40;10118;-59
2021/06/05 22:48:38;;;;;;;;;25.00;22.00;;;;;;;;8872554;40;9925;-59
2021/06/05 22:54:40;;;;;;;;;23.67;21.67;;;;;;;;8897174;40;10178;-60
2021/06/05 23:00:44;;;;;;;;;23.00;20.67;;;;;;;;8896139;40;9915;-60
2021/06/05 23:06:47;;;;;;;;;23.67;23.67;;;;;;;;8897813;40;10486;-60
2021/06/05 23:12:49;;;;;;;;;25.67;20.00;;;;;;;;8895946;40;9902;-57
2021/06/05 23:18:52;;;;;;;;;20.33;19.33;;;;;;;;8886203;40;9919;-59
2021/06/05 23:24:53;;;;;;;;;20.00;20.00;;;;;;;;8897698;40;9859;-60
2021/06/05 23:30:56;;;;;;;;;21.00;21.00;;;;;;;;8886547;40;10188;-57
2021/06/05 23:36:58;;;;;;;;;19.00;19.00;;;;;;;;8875588;40;10455;-59
2021/06/05 23:43:00;;;;;;;;;20.00;20.00;;;;;;;;8875748;40;9897;-58
2021/06/05 23:49:03;;;;;;;;;16.67;15.00;;;;;;;;8874020;40;9955;-59
2021/06/05 23:55:10;;;;;;;;;17.33;17.33;;;;;;;;8875491;40;9847;-58
